sensor_id;sensor_type;location;lat;lon;timestamp;P1;durP1;ratioP1;P2;durP2;ratioP2
11425;SDS011;5769;47.998;7.788;2023-01-15T21:17:34;335.55;;;63.75;;
11425;SDS011;5769;47.998;7.788;2023-01-15T21:20:02;205.13;;;77.43;;
11425;SDS011;5769;47.998;7.788;2023-01-15T21:22:29;254.38;;;66.47;;
11425;SDS011;5769;47.998;7.788;2023-01-15T21:24:56;272.40;;;64.25;;
11425;SDS011;5769;47.998;7.788;2023-01-15T21:27:23;326.33;;;57.35;;
11425;SDS011;5769;47.998;7.788;2023-01-15T21:29:50;331.10;;;53.75;;
11425;SDS011;5769;47.998;7.788;2023-01-15T21:32:16;334.02;;;53.25;;
11425;SDS011;5769;47.998;7.788;2023-01-15T21:34:44;335.17;;;53.33;;
11425;SDS011;5769;47.998;7.788;2023-01-15T21:37:11;334.70;;;52.90;;
11425;SDS011;5769;47.998;7.788;2023-01-15T21:39:37;334.85;;;52.85;;
11425;SDS011;5769;47.998;7.788;2023-01-15T21:42:04;308.42;;;57.25;;
11425;SDS011;5769;47.998;7.788;2023-01-15T21:44:49;304.63;;;56.67;;
11425;SDS011;5769;47.998;7.788;2023-01-15T21:47:16;335.15;;;53.53;;
11425;SDS011;5769;47.998;7.788;2023-01-15T21:49:45;335.40;;;53.20;;
11425;SDS011;5769;47.998;7.788;2023-01-15T21:52:13;329.52;;;53.63;;
11425;SDS011;5769;47.998;7.788;2023-01-15T21:54:41;304.65;;;56.30;;
11425;SDS011;5769;47.998;7.788;2023-01-15T21:57:08;268.77;;;54.28;;
11425;SDS011;5769;47.998;7.788;2023-01-15T21:59:35;327.58;;;54.70;;
11425;SDS011;5769;47.998;7.788;2023-01-15T22:02:02;335.27;;;54.25;;
11425;SDS011;5769;47.998;7.788;2023-01-15T22:04:32;330.77;;;54.33;;
11425;SDS011;5769;47.998;7.788;2023-01-15T22:07:02;322.23;;;53.08;;
11425;SDS011;5769;47.998;7.788;2023-01-15T22:09:28;255.57;;;56.83;;
11425;SDS011;5769;47.998;7.788;2023-01-15T22:11:55;254.20;;;61.55;;
11425;SDS011;5769;47.998;7.788;2023-01-15T22:14:23;242.25;;;58.83;;
11425;SDS011;5769;47.998;7.788;2023-01-15T22:16:51;227.70;;;60.10;;
11425;SDS011;5769;47.998;7.788;2023-01-15T22:19:19;243.88;;;61.38;;
11425;SDS011;5769;47.998;7.788;2023-01-15T22:21:47;274.00;;;58.50;;
11425;SDS011;5769;47.998;7.788;2023-01-15T22:24:15;320.67;;;55.90;;
11425;SDS011;5769;47.998;7.788;2023-01-15T22:26:43;338.10;;;54.35;;
11425;SDS011;5769;47.998;7.788;2023-01-15T22:29:13;332.55;;;54.03;;
11425;SDS011;5769;47.998;7.788;2023-01-15T22:31:40;310.15;;;52.47;;
11425;SDS011;5769;47.998;7.788;2023-01-15T22:34:07;331.05;;;54.28;;
11425;SDS011;5769;47.998;7.788;2023-01-15T22:36:34;332.13;;;55.33;;
11425;SDS011;5769;47.998;7.788;2023-01-15T22:39:01;332.83;;;53.70;;
11425;SDS011;5769;47.998;7.788;2023-01-15T22:41:29;332.15;;;54.70;;
11425;SDS011;5769;47.998;7.788;2023-01-15T22:44:14;334.80;;;54.22;;
11425;SDS011;5769;47.998;7.788;2023-01-15T22:46:40;332.70;;;54.42;;
11425;SDS011;5769;47.998;7.788;2023-01-15T22:49:09;339.23;;;53.20;;
11425;SDS011;5769;47.998;7.788;2023-01-15T22:51:35;335.95;;;54.28;;
11425;SDS011;5769;47.998;7.788;2023-01-15T22:54:02;335.70;;;54.67;;
11425;SDS011;5769;47.998;7.788;2023-01-15T22:56:30;333.13;;;54.60;;
11425;SDS011;5769;47.998;7.788;2023-01-15T22:58:57;333.38;;;53.72;;
11425;SDS011;5769;47.998;7.788;2023-01-15T23:01:24;334.92;;;54.33;;
11425;SDS011;5769;47.998;7.788;2023-01-15T23:03:50;331.80;;;53.85;;
11425;SDS011;5769;47.998;7.788;2023-01-15T23:06:18;322.60;;;54.88;;
11425;SDS011;5769;47.998;7.788;2023-01-15T23:08:48;323.92;;;55.10;;
11425;SDS011;5769;47.998;7.788;2023-01-15T23:11:20;322.80;;;55.38;;
11425;SDS011;5769;47.998;7.788;2023-01-15T23:13:47;337.05;;;53.60;;
11425;SDS011;5769;47.998;7.788;2023-01-15T23:16:14;320.83;;;55.53;;
11425;SDS011;5769;47.998;7.788;2023-01-15T23:18:41;313.33;;;55.67;;
11425;SDS011;5769;47.998;7.788;2023-01-15T23:21:09;316.45;;;55.92;;
11425;SDS011;5769;47.998;7.788;2023-01-15T23:23:38;318.10;;;55.75;;
11425;SDS011;5769;47.998;7.788;2023-01-15T23:26:05;311.88;;;56.15;;
11425;SDS011;5769;47.998;7.788;2023-01-15T23:28:33;317.98;;;55.85;;
11425;SDS011;5769;47.998;7.788;2023-01-15T23:31:01;318.17;;;56.25;;
11425;SDS011;5769;47.998;7.788;2023-01-15T23:33:28;325.25;;;55.42;;
11425;SDS011;5769;47.998;7.788;2023-01-15T23:35:55;321.80;;;55.58;;
11425;SDS011;5769;47.998;7.788;2023-01-15T23:38:23;326.02;;;55.25;;
11425;SDS011;5769;47.998;7.788;2023-01-15T23:40:50;329.92;;;54.97;;
11425;SDS011;5769;47.998;7.788;2023-01-15T23:43:16;333.00;;;54.00;;
11425;SDS011;5769;47.998;7.788;2023-01-15T23:46:03;335.48;;;54.45;;
11425;SDS011;5769;47.998;7.788;2023-01-15T23:48:48;336.65;;;53.60;;
11425;SDS011;5769;47.998;7.788;2023-01-15T23:51:15;333.85;;;53.60;;
11425;SDS011;5769;47.998;7.788;2023-01-15T23:53:41;335.90;;;55.00;;
11425;SDS011;5769;47.998;7.788;2023-01-15T23:56:08;335.17;;;53.38;;
11425;SDS011;5769;47.998;7.788;2023-01-15T23:58:35;333.77;;;53.58;;
